Agua Dulce, California
Current Conditions -  °F | °C
As of 12:56 AM on Saturday 29 Nov 2014 (Local Time) from KWJF Reporting Station
Clear Clear  
Wind Chill: 41°   Ceiling: Unl
Heat Index: 41°   Visibility: 10mi
Dew Point: 21°   Wind: 0mph
Humidity: 45%   Direction: NA
Pressure: 29.92"   Gusts: NA
Location:  34.513°N, 118.402°W
Report Text: KWJF 290856Z 00000KT 10SM CLR 05/M06 A2992 RMK AO2 SLP130 T00501061 56008
Loading
Personal Weather Stations






























Interactive Weather Map New forecast layout! Learn more

10-Day Weather Forecast

Advertisements
Track Severe Weather on mobile